createdAt,value
2023-01-09T00:02:04.358Z,45.15
2023-01-09T00:04:33.208Z,48.42
2023-01-09T00:07:01.957Z,52.55
2023-01-09T00:09:30.519Z,47.83
2023-01-09T00:12:00.438Z,46.72
2023-01-09T00:14:28.896Z,44.95
2023-01-09T00:16:57.832Z,43.13
2023-01-09T00:19:26.610Z,42.03
2023-01-09T00:21:55.134Z,40.78
2023-01-09T00:24:23.965Z,45.75
2023-01-09T00:26:52.655Z,42.55
2023-01-09T00:29:22.756Z,39.47
2023-01-09T00:31:51.145Z,38.08
2023-01-09T00:34:19.520Z,44.45
2023-01-09T00:36:48.654Z,48.97
2023-01-09T00:39:17.057Z,45.05
2023-01-09T00:41:49.893Z,49.38
2023-01-09T00:44:22.246Z,46.58
2023-01-09T00:46:55.187Z,42.28
2023-01-09T00:49:24.761Z,44.85
2023-01-09T00:51:55.799Z,47.67
2023-01-09T00:54:25.070Z,42.90
2023-01-09T00:56:53.501Z,32.47
2023-01-09T00:59:22.122Z,51.17
2023-01-09T01:01:52.006Z,45.35
2023-01-09T01:04:37.797Z,46.72
2023-01-09T01:07:23.911Z,44.47
2023-01-09T01:09:52.654Z,46.38
2023-01-09T01:12:21.142Z,51.80
2023-01-09T01:14:49.936Z,42.25
2023-01-09T01:17:20.419Z,39.47
2023-01-09T01:19:49.291Z,48.10
2023-01-09T01:22:17.749Z,51.47
2023-01-09T01:24:46.474Z,46.20
2023-01-09T01:27:14.942Z,50.97
2023-01-09T01:29:43.386Z,46.33
2023-01-09T01:32:12.607Z,51.17
2023-01-09T01:34:42.940Z,41.33
2023-01-09T01:37:11.829Z,54.22
2023-01-09T01:39:40.433Z,47.20
2023-01-09T01:42:09.127Z,45.83
2023-01-09T01:45:08.541Z,55.53
2023-01-09T01:47:43.107Z,48.90
2023-01-09T01:50:17.520Z,51.70
2023-01-09T01:52:49.156Z,43.92
2023-01-09T01:55:19.756Z,48.15
2023-01-09T01:57:51.898Z,49.72
2023-01-09T02:00:23.814Z,50.13
2023-01-09T02:02:52.833Z,48.10
2023-01-09T02:05:23.311Z,45.08
2023-01-09T02:07:51.754Z,44.33
2023-01-09T02:10:23.549Z,44.70
2023-01-09T02:12:52.099Z,44.17
2023-01-09T02:15:21.642Z,43.97
2023-01-09T02:18:14.002Z,47.45
2023-01-09T02:20:52.089Z,42.45
2023-01-09T02:23:54.835Z,44.38
2023-01-09T02:26:36.467Z,43.17
2023-01-09T02:29:39.538Z,40.05
2023-01-09T02:32:18.308Z,40.45
2023-01-09T02:34:56.289Z,42.35
2023-01-09T02:37:34.748Z,39.03
2023-01-09T02:40:10.303Z,42.47
2023-01-09T02:42:41.984Z,40.60
2023-01-09T02:45:11.053Z,41.65
2023-01-09T02:47:44.093Z,45.05
2023-01-09T02:50:18.721Z,43.65
2023-01-09T02:53:10.603Z,42.65
2023-01-09T02:55:53.345Z,44.65
2023-01-09T02:58:38.163Z,47.90
2023-01-09T03:01:19.215Z,38.65
2023-01-09T03:03:53.817Z,38.78
2023-01-09T03:06:30.279Z,41.85
2023-01-09T03:09:03.911Z,42.75
2023-01-09T03:11:39.038Z,45.78
2023-01-09T03:14:12.147Z,42.55
2023-01-09T03:16:41.268Z,41.38
2023-01-09T03:19:15.386Z,35.10
2023-01-09T03:21:44.824Z,38.25
2023-01-09T03:24:13.304Z,38.65
2023-01-09T03:26:41.879Z,39.78
2023-01-09T03:29:11.222Z,38.72
2023-01-09T03:31:39.751Z,40.50
2023-01-09T03:34:08.617Z,36.35
2023-01-09T03:36:38.467Z,39.53
2023-01-09T03:41:35.797Z,36.58
2023-01-09T03:44:04.715Z,37.22
2023-01-09T03:46:33.177Z,40.90
2023-01-09T03:49:01.937Z,35.83
2023-01-09T03:51:30.925Z,33.92
2023-01-09T03:54:00.727Z,39.73
2023-01-09T03:58:57.630Z,36.03
2023-01-09T04:01:26.490Z,40.28
2023-01-09T04:03:55.497Z,33.13
2023-01-09T04:06:24.081Z,37.77
2023-01-09T04:08:52.550Z,40.65
2023-01-09T04:11:22.647Z,41.00
2023-01-09T04:13:51.106Z,44.22
2023-01-09T04:16:19.798Z,39.25
2023-01-09T04:18:48.321Z,40.25
2023-01-09T04:21:16.856Z,38.40
2023-01-09T04:23:45.724Z,43.92
2023-01-09T04:26:14.486Z,36.17
2023-01-09T04:28:44.763Z,40.45
2023-01-09T04:31:13.621Z,42.75
2023-01-09T04:33:42.053Z,40.83
2023-01-09T04:36:11.240Z,39.53
2023-01-09T04:38:40.057Z,40.25
2023-01-09T04:41:08.545Z,39.10
2023-01-09T04:43:37.380Z,38.10
2023-01-09T04:46:07.643Z,38.70
2023-01-09T04:48:36.566Z,36.75
2023-01-09T04:51:05.146Z,40.17
2023-01-09T04:53:33.954Z,42.38
2023-01-09T04:56:02.611Z,43.17
2023-01-09T04:58:31.538Z,38.10
2023-01-09T05:01:00.533Z,37.13
2023-01-09T05:03:30.725Z,38.40
2023-01-09T05:05:59.258Z,38.75
2023-01-09T05:08:27.919Z,34.28
2023-01-09T05:10:56.355Z,37.83
2023-01-09T05:13:24.852Z,36.50
2023-01-09T05:15:53.482Z,39.03
2023-01-09T05:18:22.292Z,35.53
2023-01-09T05:20:52.094Z,39.90
2023-01-09T05:25:49.182Z,38.47
2023-01-09T05:28:17.972Z,36.28
2023-01-09T05:30:47.494Z,36.28
2023-01-09T05:33:16.052Z,33.47
2023-01-09T05:35:45.047Z,36.83
2023-01-09T05:38:14.904Z,38.20
2023-01-09T05:43:11.732Z,34.58
2023-01-09T05:45:40.594Z,37.13
2023-01-09T05:48:09.459Z,38.35
2023-01-09T05:50:38.293Z,37.00
2023-01-09T05:53:07.103Z,35.70
2023-01-09T05:55:37.346Z,37.85
2023-01-09T05:58:06.494Z,39.40
2023-01-09T06:00:35.055Z,36.60
2023-01-09T06:03:04.225Z,35.20
2023-01-09T06:05:32.705Z,35.05
2023-01-09T06:08:01.656Z,34.60
2023-01-09T06:10:30.139Z,35.50
2023-01-09T06:13:00.180Z,35.58
2023-01-09T06:15:28.900Z,32.45
2023-01-09T06:17:57.454Z,32.78
2023-01-09T06:20:25.851Z,38.38
2023-01-09T06:22:54.246Z,32.95
2023-01-09T06:25:22.869Z,36.67
2023-01-09T06:27:52.340Z,34.92
2023-01-09T06:30:22.399Z,32.85
2023-01-09T06:32:51.518Z,35.80
2023-01-09T06:35:20.954Z,33.05
2023-01-09T06:37:50.391Z,36.80
2023-01-09T06:40:21.098Z,36.67
2023-01-09T06:42:50.837Z,36.30
2023-01-09T06:45:19.322Z,32.38
2023-01-09T06:47:50.221Z,36.58
2023-01-09T06:50:18.963Z,33.60
2023-01-09T06:52:47.453Z,52.13
2023-01-09T06:55:16.708Z,49.95
2023-01-09T06:57:45.501Z,56.92
2023-01-09T07:00:14.611Z,48.08
2023-01-09T07:02:43.192Z,40.35
2023-01-09T07:05:13.330Z,31.25
2023-01-09T07:07:42.649Z,33.28
2023-01-09T07:10:12.218Z,32.88
2023-01-09T07:12:40.985Z,33.30
2023-01-09T07:15:10.199Z,32.45
2023-01-09T07:17:38.657Z,31.02
2023-01-09T07:20:08.315Z,48.03
2023-01-09T07:22:38.077Z,40.25
2023-01-09T07:27:35.211Z,28.45
2023-01-09T07:30:04.083Z,34.90
2023-01-09T07:32:32.986Z,35.50
2023-01-09T07:35:01.465Z,46.27
2023-01-09T07:37:29.968Z,60.90
2023-01-09T07:39:59.782Z,93.05
2023-01-09T07:44:56.341Z,43.78
2023-01-09T07:47:25.320Z,30.88
2023-01-09T07:49:53.724Z,30.60
2023-01-09T07:52:22.229Z,33.85
2023-01-09T07:54:50.900Z,29.77
2023-01-09T07:57:20.790Z,32.55
2023-01-09T07:59:49.327Z,35.90
2023-01-09T08:02:18.084Z,32.63
2023-01-09T08:04:47.262Z,31.95
2023-01-09T08:07:15.814Z,33.20
2023-01-09T08:13:30.977Z,45.22
2023-01-09T08:15:59.658Z,35.40
2023-01-09T08:18:28.411Z,32.50
2023-01-09T08:20:56.857Z,34.45
2023-01-09T08:23:25.292Z,31.63
2023-01-09T08:25:54.404Z,40.58
2023-01-09T08:28:22.928Z,35.35
2023-01-09T08:30:52.911Z,31.95
2023-01-09T08:33:21.364Z,33.75
2023-01-09T08:35:50.365Z,42.45
2023-01-09T08:38:19.034Z,36.23
2023-01-09T08:40:48.476Z,31.67
2023-01-09T08:43:34.554Z,30.80
2023-01-09T08:46:21.675Z,34.25
2023-01-09T08:48:50.317Z,32.03
2023-01-09T08:51:18.742Z,43.03
2023-01-09T08:53:47.506Z,43.83
2023-01-09T08:56:16.432Z,33.38
2023-01-09T08:58:45.254Z,34.77
2023-01-09T09:01:15.172Z,39.08
2023-01-09T09:06:12.347Z,58.72
2023-01-09T09:08:40.845Z,51.55
2023-01-09T09:11:09.337Z,36.75
2023-01-09T09:13:38.097Z,33.70
2023-01-09T09:16:07.638Z,33.78
2023-01-09T09:18:37.670Z,36.00
2023-01-09T09:21:06.699Z,33.90
2023-01-09T09:23:35.243Z,133.50
2023-01-09T09:26:03.825Z,38.88
2023-01-09T09:28:32.649Z,54.72
2023-01-09T09:31:01.482Z,33.47
2023-01-09T09:33:30.330Z,36.97
2023-01-09T09:36:01.742Z,41.17
2023-01-09T09:38:30.540Z,38.42
2023-01-09T09:41:33.567Z,34.10
2023-01-09T09:44:34.736Z,37.10
2023-01-09T09:47:12.062Z,35.33
2023-01-09T09:49:51.379Z,35.05
2023-01-09T09:52:32.174Z,31.13
2023-01-09T09:55:06.607Z,33.55
2023-01-09T09:57:37.914Z,32.53
2023-01-09T10:00:09.705Z,36.13
2023-01-09T10:02:47.487Z,33.10
2023-01-09T10:05:22.179Z,33.85
2023-01-09T10:07:54.004Z,34.03
2023-01-09T10:10:30.636Z,32.72
2023-01-09T10:13:20.691Z,32.65
2023-01-09T10:15:54.868Z,32.13
2023-01-09T10:18:32.915Z,33.97
2023-01-09T10:21:07.601Z,33.75
2023-01-09T10:24:00.354Z,34.47
2023-01-09T10:26:33.626Z,34.13
2023-01-09T10:29:30.816Z,30.50
2023-01-09T10:32:13.356Z,35.47
2023-01-09T10:34:53.054Z,31.52
2023-01-09T10:37:24.957Z,34.78
2023-01-09T10:39:59.465Z,34.28
2023-01-09T10:42:33.388Z,34.28
2023-01-09T10:45:07.684Z,33.60
2023-01-09T10:47:38.867Z,33.80
2023-01-09T10:50:21.356Z,33.67
2023-01-09T10:52:51.967Z,32.20
2023-01-09T10:55:39.071Z,30.88
2023-01-09T10:58:13.971Z,38.92
2023-01-09T11:00:43.318Z,33.55
2023-01-09T11:03:13.679Z,32.67
2023-01-09T11:05:42.940Z,34.33
2023-01-09T11:08:22.517Z,35.58
2023-01-09T11:10:54.355Z,34.90
2023-01-09T11:13:25.210Z,31.00
2023-01-09T11:16:06.708Z,32.78
2023-01-09T11:18:36.755Z,35.28
2023-01-09T11:21:16.210Z,32.53
2023-01-09T11:23:44.613Z,32.63
2023-01-09T11:26:25.110Z,37.80
2023-01-09T11:29:11.192Z,34.58
2023-01-09T11:31:40.733Z,37.15
2023-01-09T11:34:17.795Z,38.92
2023-01-09T11:36:47.342Z,37.60
2023-01-09T11:39:24.780Z,36.28
2023-01-09T11:41:57.124Z,36.88
2023-01-09T11:44:26.002Z,40.67
2023-01-09T11:46:54.734Z,38.60
2023-01-09T11:49:25.400Z,39.70
2023-01-09T11:52:16.025Z,45.10
2023-01-09T11:54:50.346Z,31.70
2023-01-09T11:57:21.558Z,32.22
2023-01-09T11:59:50.418Z,36.33
2023-01-09T12:02:39.781Z,36.10
2023-01-09T12:05:19.265Z,34.67
2023-01-09T12:08:06.023Z,34.55
2023-01-09T12:10:48.230Z,52.47
2023-01-09T12:13:28.904Z,31.83
2023-01-09T12:16:09.184Z,26.45
2023-01-09T12:18:48.466Z,24.65
2023-01-09T12:21:30.018Z,26.77
2023-01-09T12:24:19.371Z,25.52
2023-01-09T12:26:54.424Z,22.80
2023-01-09T12:29:45.595Z,16.60
2023-01-09T12:32:31.659Z,18.58
2023-01-09T12:35:06.851Z,16.02
2023-01-09T12:38:10.615Z,17.35
2023-01-09T12:41:15.605Z,12.23
2023-01-09T12:43:55.502Z,13.73
2023-01-09T12:49:14.907Z,13.82
2023-01-09T12:51:47.720Z,15.30
2023-01-09T12:54:25.618Z,13.43
2023-01-09T12:56:58.867Z,13.77
2023-01-09T12:59:33.066Z,10.88
2023-01-09T13:02:13.256Z,9.90
2023-01-09T13:04:49.411Z,9.95
2023-01-09T13:07:21.441Z,10.93
2023-01-09T13:09:55.037Z,11.60
2023-01-09T13:12:25.894Z,11.02
2023-01-09T13:14:57.682Z,5.65
2023-01-09T13:17:32.398Z,7.57
2023-01-09T13:20:00.915Z,3.58
2023-01-09T13:22:30.425Z,2.97
2023-01-09T13:25:21.204Z,2.90
2023-01-09T13:27:59.091Z,3.83
2023-01-09T13:30:45.005Z,4.53
2023-01-09T13:33:21.792Z,5.78
2023-01-09T13:35:52.366Z,4.75
2023-01-09T13:38:24.053Z,4.63
2023-01-09T13:41:28.397Z,3.25
2023-01-09T13:43:59.570Z,3.05
2023-01-09T13:46:46.789Z,8.55
2023-01-09T13:49:59.786Z,4.78
2023-01-09T13:52:36.836Z,6.43
2023-01-09T13:55:30.059Z,3.58
2023-01-09T13:58:24.710Z,3.08
2023-01-09T14:00:59.765Z,3.72
2023-01-09T14:03:32.914Z,5.18
2023-01-09T14:06:18.608Z,4.50
2023-01-09T14:08:49.937Z,5.53
2023-01-09T14:11:27.128Z,5.68
2023-01-09T14:14:15.551Z,5.55
2023-01-09T14:16:45.240Z,2.83
2023-01-09T14:19:34.712Z,3.58
2023-01-09T14:22:06.185Z,3.65
2023-01-09T14:24:42.533Z,6.18
2023-01-09T14:27:44.211Z,6.28
2023-01-09T14:30:30.899Z,3.63
2023-01-09T14:33:01.163Z,3.85
2023-01-09T14:35:38.327Z,3.55
2023-01-09T14:38:24.131Z,6.28
2023-01-09T14:40:57.222Z,5.03
2023-01-09T14:43:33.642Z,4.18
2023-01-09T14:46:11.495Z,4.85
2023-01-09T14:48:47.787Z,6.40
2023-01-09T14:51:18.471Z,9.07
2023-01-09T14:53:52.027Z,6.32
2023-01-09T14:56:28.649Z,11.02
2023-01-09T14:59:11.444Z,9.98
2023-01-09T15:01:43.560Z,9.38
2023-01-09T15:04:23.773Z,15.35
2023-01-09T15:06:52.923Z,13.27
2023-01-09T15:09:27.688Z,16.13
2023-01-09T15:12:02.019Z,19.83
2023-01-09T15:14:33.946Z,16.10
2023-01-09T15:17:03.108Z,19.83
2023-01-09T15:19:33.090Z,19.60
2023-01-09T15:22:05.339Z,21.85
2023-01-09T15:24:35.793Z,28.05
2023-01-09T15:27:11.306Z,23.23
2023-01-09T15:29:39.803Z,22.13
2023-01-09T15:32:16.143Z,21.85
2023-01-09T15:34:45.571Z,20.85
2023-01-09T15:37:29.421Z,18.50
2023-01-09T15:40:00.825Z,23.20
2023-01-09T15:42:49.014Z,19.63
2023-01-09T15:45:24.465Z,21.65
2023-01-09T15:47:53.441Z,20.08
2023-01-09T15:50:26.624Z,23.17
2023-01-09T15:52:56.585Z,23.98
2023-01-09T15:55:35.112Z,23.05
2023-01-09T15:58:05.334Z,21.75
2023-01-09T16:00:43.895Z,31.92
2023-01-09T16:03:22.642Z,29.40
2023-01-09T16:05:55.186Z,30.90
2023-01-09T16:08:29.266Z,31.88
2023-01-09T16:11:05.128Z,29.10
2023-01-09T16:13:40.150Z,30.13
2023-01-09T16:16:09.065Z,31.02
2023-01-09T16:18:39.473Z,37.13
2023-01-09T16:21:32.044Z,38.17
2023-01-09T16:24:03.206Z,38.80
2023-01-09T16:26:34.076Z,42.80
2023-01-09T16:29:27.718Z,39.42
2023-01-09T16:32:03.808Z,35.38
2023-01-09T16:34:32.826Z,32.70
2023-01-09T16:37:02.883Z,34.23
2023-01-09T16:39:31.397Z,33.35
2023-01-09T16:42:18.904Z,37.20
2023-01-09T16:44:47.349Z,32.13
2023-01-09T16:47:15.905Z,32.38
2023-01-09T16:49:44.286Z,34.28
2023-01-09T16:52:16.914Z,29.83
2023-01-09T16:54:46.863Z,32.42
2023-01-09T16:57:19.636Z,32.67
2023-01-09T16:59:48.219Z,32.60
2023-01-09T17:02:19.653Z,32.10
2023-01-09T17:04:48.180Z,36.90
2023-01-09T17:07:17.830Z,34.20
2023-01-09T17:09:47.600Z,40.47
2023-01-09T17:12:20.118Z,55.30
2023-01-09T17:14:49.053Z,56.55
2023-01-09T17:17:18.343Z,47.07
2023-01-09T17:19:46.833Z,62.05
2023-01-09T17:22:15.773Z,57.83
2023-01-09T17:25:01.670Z,58.53
2023-01-09T17:27:51.900Z,63.42
2023-01-09T17:30:20.534Z,63.53
2023-01-09T17:32:50.128Z,68.15
2023-01-09T17:35:18.650Z,73.95
2023-01-09T17:37:47.239Z,67.97
2023-01-09T17:40:19.378Z,59.75
2023-01-09T17:42:49.215Z,46.90
2023-01-09T17:47:46.484Z,43.70
2023-01-09T17:50:20.386Z,40.13
2023-01-09T17:52:49.465Z,36.83
2023-01-09T17:55:18.189Z,40.05
2023-01-09T17:57:48.358Z,47.90
2023-01-09T18:00:26.620Z,37.72
2023-01-09T18:02:55.378Z,44.33
2023-01-09T18:05:24.856Z,37.00
2023-01-09T18:07:53.277Z,39.95
2023-01-09T18:10:24.229Z,44.03
2023-01-09T18:12:55.298Z,50.22
2023-01-09T18:15:24.781Z,45.20
2023-01-09T18:17:53.520Z,45.15
2023-01-09T18:20:21.959Z,46.58
2023-01-09T18:22:50.409Z,45.95
2023-01-09T18:25:18.933Z,44.17
2023-01-09T18:27:47.448Z,47.53
2023-01-09T18:30:17.856Z,45.83
2023-01-09T18:32:46.252Z,52.88
2023-01-09T18:35:14.818Z,48.15
2023-01-09T18:37:43.331Z,57.10
2023-01-09T18:40:12.822Z,48.85
2023-01-09T18:42:41.967Z,56.85
2023-01-09T18:45:11.573Z,51.83
2023-01-09T18:47:41.336Z,55.63
2023-01-09T18:50:11.196Z,54.70
2023-01-09T18:55:08.456Z,71.32
2023-01-09T18:57:37.531Z,63.67
2023-01-09T19:00:07.130Z,71.93
2023-01-09T19:02:35.630Z,64.28
2023-01-09T19:05:05.937Z,64.68
2023-01-09T19:07:34.384Z,71.40
2023-01-09T19:10:02.775Z,55.08
2023-01-09T19:12:31.224Z,53.45
2023-01-09T19:14:59.613Z,56.78
2023-01-09T19:17:28.015Z,58.35
2023-01-09T19:19:56.456Z,52.70
2023-01-09T19:22:27.625Z,63.13
2023-01-09T19:24:55.982Z,58.97
2023-01-09T19:27:24.414Z,49.85
2023-01-09T19:29:52.832Z,56.72
2023-01-09T19:32:22.248Z,58.03
2023-01-09T19:34:50.802Z,64.55
2023-01-09T19:37:19.709Z,63.20
2023-01-09T19:39:49.527Z,64.67
2023-01-09T19:44:46.752Z,88.95
2023-01-09T19:47:15.116Z,103.60
2023-01-09T19:49:43.525Z,82.93
2023-01-09T19:52:11.918Z,81.68
2023-01-09T19:54:40.433Z,82.07
2023-01-09T19:57:10.221Z,65.57
2023-01-09T20:02:09.925Z,64.70
2023-01-09T20:04:38.910Z,63.13
2023-01-09T20:07:07.498Z,62.53
2023-01-09T20:09:36.784Z,63.05
2023-01-09T20:12:05.696Z,49.05
2023-01-09T20:14:37.747Z,67.28
2023-01-09T20:17:06.193Z,70.00
2023-01-09T20:19:35.121Z,62.10
2023-01-09T20:22:03.544Z,65.70
2023-01-09T20:24:32.037Z,56.88
2023-01-09T20:27:00.543Z,58.03
2023-01-09T20:29:29.097Z,58.80
2023-01-09T20:31:59.015Z,57.78
2023-01-09T20:34:27.442Z,58.60
2023-01-09T20:36:55.930Z,48.90
2023-01-09T20:39:24.372Z,53.65
2023-01-09T20:41:52.787Z,51.63
2023-01-09T20:44:21.412Z,48.63
2023-01-09T20:46:52.158Z,48.03
2023-01-09T20:49:22.115Z,51.40
2023-01-09T20:51:52.664Z,45.03
2023-01-09T20:54:22.909Z,45.40
2023-01-09T20:56:51.684Z,45.25
2023-01-09T20:59:21.964Z,49.72
2023-01-09T21:01:51.334Z,49.22
2023-01-09T21:04:21.377Z,42.33
2023-01-09T21:06:50.451Z,36.88
2023-01-09T21:09:20.240Z,33.83
2023-01-09T21:11:48.635Z,39.03
2023-01-09T21:14:17.071Z,32.90
2023-01-09T21:16:53.679Z,34.88
2023-01-09T21:19:24.287Z,18.05
2023-01-09T21:21:53.515Z,17.70
2023-01-09T21:24:22.138Z,12.32
2023-01-09T21:26:50.817Z,11.13
2023-01-09T21:29:19.245Z,7.68
2023-01-09T21:31:47.737Z,11.60
2023-01-09T21:34:20.091Z,8.48
2023-01-09T21:36:50.070Z,7.30
2023-01-09T21:39:20.308Z,7.72
2023-01-09T21:42:06.006Z,6.25
2023-01-09T21:44:52.040Z,6.78
2023-01-09T21:47:20.464Z,5.88
2023-01-09T21:49:49.008Z,6.03
2023-01-09T21:52:19.293Z,9.40
2023-01-09T21:54:47.867Z,6.38
2023-01-09T21:57:16.886Z,3.70
2023-01-09T21:59:45.369Z,5.87
2023-01-09T22:02:15.719Z,4.57
2023-01-09T22:04:48.732Z,3.95
2023-01-09T22:07:18.794Z,5.22
2023-01-09T22:09:47.312Z,2.75
2023-01-09T22:12:16.040Z,4.30
2023-01-09T22:14:44.581Z,5.28
2023-01-09T22:17:13.024Z,3.15
2023-01-09T22:19:41.449Z,4.72
2023-01-09T22:22:10.316Z,3.67
2023-01-09T22:24:40.110Z,3.00
2023-01-09T22:29:37.162Z,3.25
2023-01-09T22:32:06.001Z,3.25
2023-01-09T22:34:34.464Z,2.38
2023-01-09T22:37:03.620Z,6.20
2023-01-09T22:39:32.074Z,3.22
2023-01-09T22:42:02.511Z,7.45
2023-01-09T22:44:30.913Z,4.80
2023-01-09T22:47:00.343Z,9.27
2023-01-09T22:49:33.443Z,8.50
2023-01-09T22:52:09.694Z,6.15
2023-01-09T22:54:38.124Z,8.60
2023-01-09T22:57:07.901Z,4.60
2023-01-09T23:02:05.564Z,11.98
2023-01-09T23:04:34.057Z,13.75
2023-01-09T23:07:02.440Z,6.07
2023-01-09T23:09:30.873Z,6.13
2023-01-09T23:12:06.050Z,6.47
2023-01-09T23:14:37.682Z,5.20
2023-01-09T23:17:07.450Z,8.25
2023-01-09T23:22:05.478Z,6.68
2023-01-09T23:24:34.839Z,5.60
2023-01-09T23:27:04.259Z,5.78
2023-01-09T23:29:32.730Z,4.38
2023-01-09T23:32:02.710Z,3.85
2023-01-09T23:34:31.323Z,6.95
2023-01-09T23:36:59.910Z,5.18
2023-01-09T23:39:28.332Z,4.47
2023-01-09T23:42:14.098Z,3.85
2023-01-09T23:44:42.514Z,3.13
2023-01-09T23:47:12.283Z,4.93
2023-01-09T23:52:08.918Z,5.00
2023-01-09T23:54:37.351Z,3.25
2023-01-09T23:57:06.088Z,4.20
2023-01-09T23:59:34.829Z,6.00
